Impacts METAR Board
IDs:

KCLE - Cleveland/Hopkins In, OH, US

Updated at: 0800 UTC 16 Oct 2018
Potential Impact None Slight Moderate High
Time 15/20Z 15/21Z 15/22Z 15/23Z 16/00Z 16/01Z 16/02Z 16/03Z 16/04Z 16/05Z 16/06Z 16/07Z 16/08Z
Temp54 54 52 50 49 48 48 47 46 44 42 41 41
Dewpt44 44 42 39 38 37 33 32 31 30 33 31 31
Altim30.03 30.05 30.07 30.10 30.13 30.17 30.21 30.23 30.24 30.24 30.24 30.25 30.25
VIS10 10 10 10 10 10 10 10 10 10 10 10 10
CIG38 39 45 240 43 40 200 42 42 250 39 40 39
CoverOVCOVCOVCBKNBKNBKNBKNBKNBKNBKNBKNBKNOVC
FltCatVFRVFRVFRVFRVFRVFRVFRVFRVFRVFRVFRVFRVFR
WX--------------------------
WDir270270280260250260290300320290250220220
WSpd17 15 15 15 11 9 14 11 9 8 7 7 7
WGst22 22 -- 21 -- -- 20 -- -- -- -- -- --
Raw hourly METARs
KCLE 151951Z 27017G22KT 10SM FEW030 OVC038 12/07 A3003 RMK AO2 SLP171 T01220067
KCLE 152051Z 27015G22KT 10SM FEW030 BKN039 OVC047 12/07 A3005 RMK AO2 PK WND 26026/2006 SLP176 T01220067 53015
KCLE 152151Z 28015KT 10SM FEW029 BKN045 OVC240 11/06 A3007 RMK AO2 SLP185 T01110056
KCLE 152251Z 26015G21KT 10SM SCT040 BKN240 10/04 A3010 RMK AO2 SLP195 T01000039
KCLE 152351Z 25011KT 10SM BKN043 BKN200 09/03 A3013 RMK AO2 SLP205 T00940033 10133 20094 53020
KCLE 160051Z 26009KT 10SM BKN040 BKN048 BKN200 09/03 A3017 RMK AO2 SLP217 T00890028
KCLE 160151Z 29014G20KT 10SM FEW044 BKN200 09/01 A3021 RMK AO2 SLP232 T00890006
KCLE 160251Z 30011KT 10SM BKN042 BKN200 08/00 A3023 RMK AO2 SLP238 T00830000 51031
KCLE 160351Z 32009KT 10SM BKN042 BKN250 08/M01 A3024 RMK AO2 SLP242 T00781006
KCLE 160451Z 29008KT 10SM SCT041 BKN250 07/M01 A3024 RMK AO2 SLP242 T00671011 401390067
KCLE 160551Z 25007KT 10SM BKN039 BKN250 06/01 A3024 RMK AO2 SLP242 T00560006 10094 20056 50003
KCLE 160651Z 22007KT 10SM BKN040 BKN250 05/M01 A3025 RMK AO2 SLP246 T00501006
KCLE 160751Z 22007KT 10SM OVC039 05/M01 A3025 RMK AO2 SLP245 T00501006



Page loaded:  08:02 UTC  |   01:02 AM Pacific  |   02:02 AM Mountain  |   03:02 AM Central  |   04:02 AM Eastern

 

ADVISORIES

FORECASTS

FORECASTS

OBSERVATIONS

USER TOOLS

ABOUT US